SESA

General Ulpiano Paez Airport

Airport
ICAO code
SESA
IATA Code
SNC
Summary
ICAO Region
CARSAM
ICAO Territory
Location

, Guayas

Serving
Salinas
Elevation
18 ft
Coordinates
2° 12' 18" S , 80° 59' 20" W
Metar
Observation
SESA 262200Z 23012KT 9999 SCT007 OVC012 22/18 Q1011 RMK A2985
Station
Salinas / General Ulpiano Paez
Date/Time
2022-09-26 22:00:00
Wind direction
230°
Wind speed
12 kts
Lowest cloud amount
scattered clouds
Temperature
22°C
Dew point
18°C
Humidity
78%
QNH
1011 hPa
Weather condition
n/a

Runways

Designator Length Width Surface Rops
8/26 1110 40 ASP No/No
13/31 2437 30 ASP No/No

Airport map

Aerial View

SKYbrary Partners:

Safety knowledge contributed by: